Time;durP1;ratioP1;P1;durP2;ratioP2;P2;SDS_P1;SDS_P2;PMS_P1;PMS_P2;Temp;Humidity;BMP_temperature;BMP_pressure;BME280_temperature;BME280_humidity;BME280_pressure;Samples;Min_cycle;Max_cycle;Signal;HPM_P1;HPM_P2
2023/05/21 00:01:35;;;;;;;30.10;23.80;;;;;;;13.25;100.00;99522.59;269949;1266;22555;-88
2023/05/21 00:08:02;;;;;;;33.80;25.00;;;;;;;13.33;100.00;99516.92;272080;1266;22211;-88
2023/05/21 00:22:27;;;;;;;37.50;27.60;;;;;;;13.55;100.00;99510.81;271741;1267;22194;-89
2023/05/21 00:36:36;;;;;;;34.40;26.80;;;;;;;13.72;100.00;99504.16;270363;1267;25491;-89
2023/05/21 00:50:38;;;;;;;37.50;29.10;;;;;;;13.81;100.00;99501.47;272244;1266;23456;-88
2023/05/21 00:56:40;;;;;;;37.50;27.00;;;;;;;13.82;100.00;99502.49;271674;1266;22544;-87
2023/05/21 01:03:37;;;;;;;38.60;27.90;;;;;;;13.81;100.00;99502.18;273630;1266;23143;-88
2023/05/21 01:10:43;;;;;;;35.20;27.80;;;;;;;13.81;100.00;99496.83;274192;1266;22271;-88
2023/05/21 01:16:47;;;;;;;36.80;28.50;;;;;;;13.81;100.00;99493.06;271855;1266;22629;-88
2023/05/21 01:22:55;;;;;;;40.10;30.80;;;;;;;13.80;100.00;99490.38;270722;1267;22608;-88
2023/05/21 01:28:58;;;;;;;38.20;29.60;;;;;;;13.78;100.00;99483.77;273459;1267;22341;-89
2023/05/21 01:42:54;;;;;;;37.20;27.80;;;;;;;13.72;100.00;99469.73;272270;1266;22515;-89
2023/05/21 01:48:55;;;;;;;40.80;28.60;;;;;;;13.65;100.00;99462.85;270324;1266;22531;-88
2023/05/21 01:54:58;;;;;;;42.90;29.80;;;;;;;13.62;100.00;99464.87;270734;1267;22526;-87
2023/05/21 02:01:01;;;;;;;37.70;30.30;;;;;;;13.61;100.00;99463.14;271427;1266;22554;-87
2023/05/21 02:07:52;;;;;;;40.30;31.20;;;;;;;13.59;100.00;99462.33;273564;1267;23176;-89
2023/05/21 02:13:56;;;;;;;40.10;30.50;;;;;;;13.57;100.00;99460.52;272507;1266;23162;-87
2023/05/21 02:20:06;;;;;;;38.90;30.00;;;;;;;13.55;100.00;99457.52;270955;1266;22688;-88
2023/05/21 02:26:57;;;;;;;34.00;28.10;;;;;;;13.47;100.00;99448.91;272138;1267;23529;-88
2023/05/21 02:40:59;;;;;;;32.80;26.30;;;;;;;13.32;100.00;99454.23;270825;1267;22854;-88
2023/05/21 02:54:48;;;;;;;40.20;28.90;;;;;;;13.13;100.00;99456.52;271266;1257;22650;-88
2023/05/21 03:00:51;;;;;;;38.30;28.40;;;;;;;13.09;100.00;99455.67;271323;1270;22487;-88
2023/05/21 03:06:53;;;;;;;38.10;29.30;;;;;;;13.09;100.00;99457.89;273080;1269;22554;-88
2023/05/21 03:12:55;;;;;;;41.60;31.30;;;;;;;13.10;100.00;99449.41;272910;1266;22414;-88
2023/05/21 03:34:29;;;;;;;39.00;29.30;;;;;;;13.02;100.00;99447.94;271490;1269;22358;-89
2023/05/21 03:40:30;;;;;;;42.10;30.80;;;;;;;13.00;100.00;99446.26;272873;1267;22354;-90
2023/05/21 03:46:32;;;;;;;42.80;31.10;;;;;;;12.99;100.00;99446.79;274006;1266;23454;-89
2023/05/21 03:53:17;;;;;;;38.80;31.00;;;;;;;13.01;100.00;99445.88;274144;1269;22239;-89
2023/05/21 03:59:19;;;;;;;38.90;31.60;;;;;;;13.05;100.00;99446.23;271311;1266;22581;-90
2023/05/21 04:05:48;;;;;;;38.70;31.20;;;;;;;13.09;100.00;99448.30;270731;1266;23804;-89
2023/05/21 04:11:50;;;;;;;40.10;31.70;;;;;;;13.13;100.00;99446.45;271269;1266;22543;-88
2023/05/21 04:17:53;;;;;;;40.30;30.00;;;;;;;13.17;100.00;99441.63;270649;1265;22544;-90
2023/05/21 04:23:59;;;;;;;36.20;30.40;;;;;;;13.23;100.00;99447.02;271068;1261;24454;-90
2023/05/21 04:38:29;;;;;;;41.70;29.00;;;;;;;13.45;100.00;99445.59;270640;1272;23149;-89
2023/05/21 04:44:30;;;;;;;34.10;26.80;;;;;;;13.57;100.00;99450.70;271676;1272;22394;-90
2023/05/21 04:58:06;;;;;;;30.00;24.70;;;;;;;13.90;100.00;99450.34;271699;1266;22567;-89
2023/05/21 05:12:05;;;;;;;31.80;23.50;;;;;;;14.22;100.00;99443.73;271930;1265;22543;-88
2023/05/21 05:18:32;;;;;;;26.40;20.50;;;;;;;14.46;100.00;99445.48;270449;1268;23883;-89
2023/05/21 05:24:35;;;;;;;22.90;18.30;;;;;;;14.68;100.00;99449.54;270706;1267;22546;-88
2023/05/21 05:30:36;;;;;;;25.60;16.10;;;;;;;14.90;100.00;99454.68;270815;1266;22534;-89
2023/05/21 05:45:21;;;;;;;17.30;14.00;;;;;;;15.19;100.00;99446.50;273144;1266;22556;-88
2023/05/21 05:51:22;;;;;;;17.50;13.10;;;;;;;15.36;100.00;99446.59;273825;1266;23133;-87
2023/05/21 05:57:34;;;;;;;16.80;13.60;;;;;;;15.52;100.00;99445.39;273946;1269;22266;-89
2023/05/21 06:03:38;;;;;;;14.10;12.10;;;;;;;15.69;100.00;99446.38;273410;1267;22326;-88
2023/05/21 06:10:25;;;;;;;15.10;12.80;;;;;;;15.82;100.00;99443.45;274010;1269;22731;-88
2023/05/21 06:16:36;;;;;;;20.40;13.00;;;;;;;15.96;100.00;99439.38;274058;1267;22410;-89
2023/05/21 06:22:38;;;;;;;18.40;12.50;;;;;;;16.15;100.00;99435.27;272602;1269;22399;-88
2023/05/21 06:37:23;;;;;;;;;;;;;;;16.60;100.00;99427.79;274027;1266;22563;-88
2023/05/21 06:43:51;;;;;;;17.80;12.00;;;;;;;16.86;100.00;99429.29;272882;1266;22660;-88
2023/05/21 06:50:19;;;;;;;16.10;11.40;;;;;;;17.20;100.00;99425.69;273150;1267;22478;-88
2023/05/21 06:56:21;;;;;;;15.30;10.60;;;;;;;17.60;100.00;99425.02;273874;1267;22383;-88
2023/05/21 07:02:23;;;;;;;13.00;9.70;;;;;;;18.01;100.00;99420.45;273709;1267;23201;-88
2023/05/21 07:08:26;;;;;;;12.40;9.70;;;;;;;18.31;100.00;99410.65;273688;1266;22240;-87
2023/05/21 07:14:28;;;;;;;12.00;8.60;;;;;;;18.49;100.00;99407.41;273850;1266;22403;-87
2023/05/21 07:20:29;;;;;;;12.30;7.70;;;;;;;18.91;100.00;99405.91;273704;1266;22230;-88
2023/05/21 07:26:35;;;;;;;10.90;9.10;;;;;;;19.36;100.00;99394.86;272360;1266;22548;-91
2023/05/21 07:32:37;;;;;;;10.40;8.00;;;;;;;19.66;100.00;99397.32;272417;1267;22401;-87
2023/05/21 07:38:39;;;;;;;11.30;7.80;;;;;;;20.10;100.00;99395.02;273630;1266;22716;-87
2023/05/21 07:44:41;;;;;;;10.20;7.80;;;;;;;20.40;99.45;99394.46;272052;1266;22618;-88
2023/05/21 07:50:43;;;;;;;10.30;7.50;;;;;;;20.36;97.10;99393.54;271533;1266;22552;-88
2023/05/21 07:56:45;;;;;;;7.30;6.50;;;;;;;20.50;96.77;99386.70;271598;1266;23416;-89
2023/05/21 08:03:21;;;;;;;9.90;6.50;;;;;;;20.89;95.59;99390.16;272647;1269;22660;-88
2023/05/21 08:09:39;;;;;;;11.50;6.50;;;;;;;21.01;93.61;99390.61;272493;1265;22734;-87
2023/05/21 08:15:44;;;;;;;7.00;6.30;;;;;;;21.17;92.85;99389.33;272890;1266;22314;-86
2023/05/21 08:21:46;;;;;;;9.50;5.90;;;;;;;21.52;91.98;99384.66;272072;1266;23805;-87
2023/05/21 08:27:48;;;;;;;7.40;5.80;;;;;;;21.73;90.68;99382.58;270994;1266;22737;-87
2023/05/21 08:34:17;;;;;;;7.50;6.30;;;;;;;21.88;89.61;99377.25;271814;1266;22222;-87
2023/05/21 08:40:26;;;;;;;10.10;5.80;;;;;;;21.97;87.91;99378.83;271185;1266;22959;-87
2023/05/21 08:46:35;;;;;;;8.30;5.50;;;;;;;21.99;87.15;99378.36;271756;1266;23618;-88
2023/05/21 08:52:37;;;;;;;7.00;4.70;;;;;;;22.08;86.27;99374.68;272336;1267;22336;-87
2023/05/21 08:58:42;;;;;;;6.80;5.00;;;;;;;22.12;84.37;99376.88;271429;1265;22437;-86
2023/05/21 09:05:13;;;;;;;8.20;5.20;;;;;;;22.17;83.20;99373.92;273374;1266;22566;-87
2023/05/21 09:11:17;;;;;;;8.50;4.80;;;;;;;22.25;81.35;99364.21;272626;1266;22673;-87
2023/05/21 09:17:53;;;;;;;5.50;4.50;;;;;;;22.50;81.23;99366.64;273626;1266;22335;-87
2023/05/21 09:24:16;;;;;;;6.40;4.40;;;;;;;22.87;79.81;99362.43;273178;1266;23714;-88
2023/05/21 09:30:46;;;;;;;5.90;4.50;;;;;;;23.13;78.85;99357.41;272398;1267;23449;-86
2023/05/21 09:36:48;;;;;;;6.30;4.10;;;;;;;23.49;76.86;99352.11;273286;1266;22355;-86
2023/05/21 09:43:16;;;;;;;8.60;3.40;;;;;;;24.00;75.94;99347.23;274153;1269;22219;-86
2023/05/21 09:49:43;;;;;;;7.30;3.90;;;;;;;24.59;74.46;99345.06;273924;1266;22361;-85
2023/05/21 09:55:44;;;;;;;;;;;;;;;25.07;72.47;99339.10;264916;1269;10203254;-86
2023/05/21 10:01:46;;;;;;;4.90;3.70;;;;;;;25.43;71.32;99331.08;272330;1266;22543;-87
2023/05/21 10:31:50;;;;;;;6.40;3.10;;;;;;;25.73;59.94;99314.95;273592;1267;23449;-87
2023/05/21 10:38:42;;;;;;;4.70;3.50;;;;;;;25.63;58.60;99309.48;273532;1269;22215;-87
2023/05/21 10:53:26;;;;;;;3.80;3.10;;;;;;;26.02;58.33;99299.44;271971;1266;23705;-87
2023/05/21 11:00:20;;;;;;;4.70;3.00;;;;;;;26.32;58.26;99300.98;273897;1272;22278;-87
2023/05/21 11:07:26;;;;;;;7.00;3.70;;;;;;;26.76;57.16;99295.22;270975;1269;22556;-86
2023/05/21 11:13:30;;;;;;;12.30;4.00;;;;;;;27.00;55.95;99298.51;271479;1266;22459;-87
2023/05/21 11:19:37;;;;;;;6.80;3.30;;;;;;;27.02;55.76;99293.97;273777;1266;25240;-88
2023/05/21 11:25:38;;;;;;;5.20;3.40;;;;;;;27.15;54.91;99291.88;273753;1270;22108;-86
2023/05/21 11:31:45;;;;;;;8.10;3.10;;;;;;;27.24;54.47;99295.91;274168;1269;23094;-88
2023/05/21 11:37:48;;;;;;;5.30;3.00;;;;;;;27.56;54.18;99294.21;273861;1266;23160;-87
2023/05/21 11:51:07;;;;;;;9.70;3.10;;;;;;;27.69;51.65;99290.67;273401;1267;22536;-87
2023/05/21 12:05:49;;;;;;;5.10;2.90;;;;;;;27.38;50.39;99274.04;272663;1266;22426;-87
2023/05/21 12:12:40;;;;;;;3.90;2.60;;;;;;;27.12;49.50;99270.98;273754;1272;22511;-86
2023/05/21 12:18:41;;;;;;;7.80;2.70;;;;;;;26.66;48.13;99265.16;272697;1266;22579;-86
2023/05/21 12:24:56;;;;;;;5.20;2.90;;;;;;;26.35;48.01;99270.23;271162;1272;22405;-87
2023/05/21 12:31:49;;;;;;;5.20;2.60;;;;;;;26.06;47.92;99267.90;273717;1267;22550;-86
2023/05/21 12:45:19;;;;;;;4.90;2.90;;;;;;;25.73;47.93;99260.52;272151;1270;22417;-86
2023/05/21 12:51:23;;;;;;;6.90;2.90;;;;;;;25.57;47.56;99260.00;271792;1267;23419;-85
2023/05/21 12:57:27;;;;;;;3.80;2.70;;;;;;;25.40;47.43;99254.85;272707;1266;22552;-86
2023/05/21 13:03:34;;;;;;;6.10;2.40;;;;;;;25.34;47.63;99248.95;272528;1267;22544;-84
2023/05/21 13:09:36;;;;;;;6.70;2.70;;;;;;;25.31;47.47;99251.94;270738;1266;22518;-86
2023/05/21 13:15:55;;;;;;;8.80;2.80;;;;;;;25.27;47.25;99246.86;273872;1267;22381;-86
2023/05/21 13:21:56;;;;;;;5.60;2.60;;;;;;;25.29;47.07;99236.58;273538;1266;23531;-88
2023/05/21 13:28:00;;;;;;;4.10;2.70;;;;;;;25.29;46.96;99233.12;274000;1259;22339;-87
2023/05/21 13:34:06;;;;;;;8.40;2.40;;;;;;;25.17;47.04;99232.08;272861;1266;22971;-84
2023/05/21 13:40:15;;;;;;;4.20;2.30;;;;;;;24.99;46.13;99225.52;271850;1266;22539;-85
2023/05/21 13:46:18;;;;;;;6.40;2.50;;;;;;;24.85;46.13;99222.23;271238;1266;22317;-86
2023/05/21 13:52:20;;;;;;;5.30;2.00;;;;;;;24.80;45.89;99217.38;271786;1267;25294;-85
2023/05/21 13:58:26;;;;;;;7.60;2.50;;;;;;;24.74;45.81;99217.02;271778;1260;23657;-87
2023/05/21 14:04:30;;;;;;;8.40;2.70;;;;;;;24.80;45.62;99209.41;273929;1266;22599;-86
2023/05/21 14:10:31;;;;;;;5.10;2.30;;;;;;;24.78;45.62;99206.29;272209;1260;22970;-84
2023/05/21 14:16:34;;;;;;;3.60;2.00;;;;;;;24.62;45.18;99207.48;270844;1269;22561;-86
2023/05/21 14:22:36;;;;;;;6.00;2.60;;;;;;;24.55;44.92;99215.04;265481;1257;10001247;-86
2023/05/21 14:28:37;;;;;;;6.30;2.60;;;;;;;24.33;45.03;99215.56;273887;1266;22359;-87
2023/05/21 14:34:39;;;;;;;9.00;2.60;;;;;;;24.17;45.04;99214.87;273921;1266;22339;-84
2023/05/21 14:40:40;;;;;;;6.50;2.70;;;;;;;24.09;44.71;99210.58;273964;1270;22415;-85
2023/05/21 14:46:41;;;;;;;4.30;2.20;;;;;;;24.17;45.16;99214.64;273981;1253;22526;-85
2023/05/21 14:52:42;;;;;;;3.30;2.70;;;;;;;24.20;45.07;99216.34;273912;1264;22328;-85
2023/05/21 14:58:43;;;;;;;8.50;2.50;;;;;;;24.17;44.73;99216.38;273916;1266;22706;-86
2023/05/21 15:04:44;;;;;;;7.10;2.40;;;;;;;24.00;43.92;99223.77;273811;1267;22326;-87
2023/05/21 15:10:45;;;;;;;5.00;2.60;;;;;;;23.77;44.07;99218.30;273890;1267;23132;-86
2023/05/21 15:16:49;;;;;;;7.40;2.60;;;;;;;23.65;44.59;99215.96;273833;1267;22245;-85
2023/05/21 15:22:50;;;;;;;4.90;2.50;;;;;;;23.52;44.50;99218.06;273958;1266;22369;-85
2023/05/21 15:28:51;;;;;;;7.70;2.10;;;;;;;23.39;44.70;99216.61;273900;1269;23002;-85
2023/05/21 15:34:52;;;;;;;4.60;2.70;;;;;;;23.29;44.71;99212.19;274011;1253;22308;-85
2023/05/21 15:40:53;;;;;;;4.10;2.00;;;;;;;23.16;44.99;99212.91;274044;1266;22453;-85
2023/05/21 15:46:54;;;;;;;6.80;4.00;;;;;;;23.03;44.73;99210.41;273932;1267;23206;-86
2023/05/21 15:52:55;;;;;;;6.90;3.60;;;;;;;22.93;45.01;99206.86;274009;1267;22326;-85
2023/05/21 15:58:59;;;;;;;5.70;3.00;;;;;;;22.85;45.01;99210.17;273954;1258;22332;-86
2023/05/21 16:05:04;;;;;;;6.80;4.00;;;;;;;22.77;45.00;99216.27;273917;1267;22270;-85
2023/05/21 16:11:09;;;;;;;8.50;2.90;;;;;;;22.71;45.18;99219.59;274053;1257;22414;-87
2023/05/21 16:17:09;;;;;;;8.20;4.20;;;;;;;22.66;45.52;99220.07;273863;1266;22387;-87
2023/05/21 16:23:11;;;;;;;5.00;3.00;;;;;;;22.61;46.08;99218.75;273615;1251;25309;-84
2023/05/21 16:29:12;;;;;;;4.40;2.30;;;;;;;22.50;46.23;99216.38;271821;1266;22595;-87
2023/05/21 16:35:13;;;;;;;4.50;2.80;;;;;;;22.38;46.82;99220.59;272157;1267;22321;-86
2023/05/21 16:41:14;;;;;;;4.40;3.00;;;;;;;22.30;47.11;99221.89;273974;1267;22396;-87
2023/05/21 16:47:38;;;;;;;6.10;3.40;;;;;;;22.17;47.52;99218.99;273916;1259;22386;-86
2023/05/21 16:53:41;;;;;;;7.20;3.60;;;;;;;22.00;48.37;99217.47;273863;1266;22442;-86
2023/05/21 16:59:42;;;;;;;5.90;3.00;;;;;;;21.91;48.93;99219.01;273898;1267;22246;-84
2023/05/21 17:05:43;;;;;;;10.90;2.60;;;;;;;21.85;49.19;99222.39;273909;1266;22453;-85
2023/05/21 17:11:44;;;;;;;6.30;3.00;;;;;;;21.77;49.57;99225.80;273982;1266;23516;-86
2023/05/21 17:17:45;;;;;;;3.40;2.60;;;;;;;21.65;49.65;99229.19;273998;1264;23309;-86
2023/05/21 17:24:26;;;;;;;5.10;2.60;;;;;;;21.53;49.99;99231.44;273965;1254;22239;-85
2023/05/21 17:30:28;;;;;;;5.50;3.20;;;;;;;21.38;50.17;99228.45;273958;1260;22420;-85
2023/05/21 17:36:28;;;;;;;5.20;2.60;;;;;;;21.24;50.73;99229.88;273941;1259;22246;-86
2023/05/21 17:42:29;;;;;;;3.80;2.40;;;;;;;21.09;51.13;99228.64;273948;1266;22238;-85
2023/05/21 17:48:30;;;;;;;4.30;2.50;;;;;;;20.93;51.34;99228.67;273949;1266;22886;-86
2023/05/21 17:54:33;;;;;;;6.40;2.60;;;;;;;20.78;51.66;99223.96;273953;1250;22382;-86
2023/05/21 18:00:34;;;;;;;4.90;2.60;;;;;;;20.60;51.90;99227.37;273836;1266;22410;-85
2023/05/21 18:06:35;;;;;;;3.70;2.20;;;;;;;20.43;52.34;99233.04;273794;1266;22475;-85
2023/05/21 18:13:16;;;;;;;3.90;2.40;;;;;;;20.26;52.60;99244.04;273880;1266;22532;-84
2023/05/21 18:19:38;;;;;;;3.80;2.40;;;;;;;19.98;53.17;99242.74;273260;1269;22445;-85
2023/05/21 18:25:38;;;;;;;8.40;2.80;;;;;;;19.75;53.85;99246.98;273113;1263;22421;-85
2023/05/21 18:31:42;;;;;;;5.30;3.60;;;;;;;19.54;54.39;99253.72;273158;1261;22225;-85
2023/05/21 18:37:45;;;;;;;7.40;4.50;;;;;;;19.34;54.87;99253.42;273181;1270;23133;-85
2023/05/21 18:43:47;;;;;;;7.70;3.80;;;;;;;19.13;55.37;99256.34;273233;1270;22346;-85
2023/05/21 18:49:48;;;;;;;6.10;3.20;;;;;;;18.95;55.70;99259.61;273446;1266;22437;-86
2023/05/21 18:56:09;;;;;;;6.00;3.50;;;;;;;18.75;56.27;99263.37;273816;1266;22380;-84
2023/05/21 19:02:15;;;;;;;5.50;2.60;;;;;;;18.52;56.99;99266.77;273914;1259;22457;-85
2023/05/21 19:08:17;;;;;;;8.70;3.10;;;;;;;18.32;57.42;99270.09;273877;1267;22235;-86
2023/05/21 19:14:19;;;;;;;5.70;3.10;;;;;;;18.12;57.99;99277.52;273931;1251;23467;-87
2023/05/21 19:20:25;;;;;;;7.80;2.90;;;;;;;17.95;58.38;99280.22;273865;1260;23959;-85
2023/05/21 19:26:47;;;;;;;7.30;3.10;;;;;;;17.79;59.00;99283.23;273920;1266;22344;-87
2023/05/21 19:32:48;;;;;;;6.20;2.90;;;;;;;17.66;59.60;99281.55;273930;1266;23664;-85
2023/05/21 19:38:57;;;;;;;4.30;2.40;;;;;;;17.56;60.04;99280.97;274069;1266;22211;-86
2023/05/21 19:44:58;;;;;;;4.60;3.30;;;;;;;17.44;60.50;99281.57;274046;1257;22215;-84
2023/05/21 19:50:59;;;;;;;7.70;3.90;;;;;;;17.31;61.00;99280.13;273884;1266;22429;-85
2023/05/21 19:57:00;;;;;;;5.20;2.90;;;;;;;17.19;61.47;99280.89;273914;1263;22392;-85
2023/05/21 20:03:01;;;;;;;5.50;3.00;;;;;;;17.06;61.95;99276.92;273942;1266;22474;-85
2023/05/21 20:09:03;;;;;;;5.40;3.10;;;;;;;16.94;62.59;99273.73;273996;1253;22417;-85
2023/05/21 20:15:05;;;;;;;7.40;3.50;;;;;;;16.83;62.98;99271.48;273756;1266;22312;-85
2023/05/21 20:21:28;;;;;;;5.60;3.40;;;;;;;16.71;63.45;99266.84;274017;1262;23353;-84
2023/05/21 20:27:29;;;;;;;10.20;3.90;;;;;;;16.57;63.82;99269.73;274125;1256;22215;-84
2023/05/21 20:33:31;;;;;;;6.90;3.20;;;;;;;16.42;64.31;99276.95;274095;1266;22527;-84
2023/05/21 20:39:32;;;;;;;10.10;4.30;;;;;;;16.27;65.03;99281.77;274078;1266;22404;-85
2023/05/21 20:45:34;;;;;;;8.00;4.30;;;;;;;15.97;65.50;99288.61;274139;1253;22433;-84
2023/05/21 20:51:35;;;;;;;7.50;4.40;;;;;;;15.67;66.63;99294.14;274150;1257;22406;-84
2023/05/21 20:57:36;;;;;;;8.30;4.70;;;;;;;15.48;67.37;99293.03;274119;1266;22266;-85
2023/05/21 21:03:39;;;;;;;9.70;4.00;;;;;;;15.40;67.87;99287.07;274099;1259;22423;-85
2023/05/21 21:09:41;;;;;;;11.20;4.30;;;;;;;15.29;68.51;99286.77;274102;1257;23700;-84
2023/05/21 21:15:42;;;;;;;7.10;4.30;;;;;;;15.15;69.12;99285.70;274196;1266;22435;-85
2023/05/21 21:21:44;;;;;;;6.20;4.60;;;;;;;14.96;69.80;99285.83;274096;1263;22334;-84
2023/05/21 21:27:45;;;;;;;8.60;4.20;;;;;;;14.73;70.55;99288.67;274108;1253;22417;-84
2023/05/21 21:33:46;;;;;;;10.60;4.10;;;;;;;14.52;71.93;99290.12;274169;1265;22404;-84
2023/05/21 21:39:49;;;;;;;9.40;4.10;;;;;;;14.35;72.29;99289.48;274201;1255;22333;-85
2023/05/21 21:45:50;;;;;;;7.10;4.40;;;;;;;14.27;73.39;99292.86;274219;1260;23172;-85
2023/05/21 21:51:56;;;;;;;7.20;4.30;;;;;;;14.15;73.80;99295.73;274038;1257;22222;-85
2023/05/21 21:57:57;;;;;;;6.00;4.20;;;;;;;13.92;74.53;99300.70;271253;1260;160173;-85
2023/05/21 22:03:58;;;;;;;9.20;4.80;;;;;;;13.59;75.06;99299.11;273378;1266;23130;-85
2023/05/21 22:09:59;;;;;;;7.80;4.70;;;;;;;13.37;75.83;99296.34;274222;1257;22342;-85
2023/05/21 22:16:00;;;;;;;8.80;5.40;;;;;;;13.26;76.69;99295.90;274255;1266;22419;-85
2023/05/21 22:22:02;;;;;;;7.80;5.00;;;;;;;13.09;77.57;99294.70;274252;1266;22312;-85
2023/05/21 22:28:42;;;;;;;7.30;4.80;;;;;;;12.93;78.13;99300.08;274150;1266;22347;-84
2023/05/21 22:34:57;;;;;;;8.90;5.30;;;;;;;12.88;78.76;99292.66;274141;1266;22429;-84
2023/05/21 22:40:58;;;;;;;7.60;5.30;;;;;;;12.87;78.67;99294.38;274194;1266;22336;-84
2023/05/21 22:46:59;;;;;;;9.70;4.60;;;;;;;12.81;78.98;99295.20;274135;1260;22462;-87
2023/05/21 22:53:22;;;;;;;7.50;5.10;;;;;;;12.59;79.39;99285.86;274132;1256;22316;-85
2023/05/21 22:59:43;;;;;;;6.70;4.90;;;;;;;12.35;80.00;99274.52;274177;1266;22486;-85
2023/05/21 23:06:21;;;;;;;7.30;5.30;;;;;;;12.24;80.60;99267.30;274021;1260;22538;-85
2023/05/21 23:12:22;;;;;;;9.40;5.70;;;;;;;12.24;81.16;99262.52;274064;1266;23552;-85
2023/05/21 23:18:58;;;;;;;9.70;5.70;;;;;;;12.21;81.60;99262.55;273966;1266;22372;-85
2023/05/21 23:24:59;;;;;;;9.20;5.80;;;;;;;12.13;81.95;99269.16;272406;1266;24384;-85
2023/05/21 23:31:00;;;;;;;9.00;5.50;;;;;;;12.04;82.68;99268.59;272025;1266;22529;-85
2023/05/21 23:37:01;;;;;;;11.20;6.00;;;;;;;11.88;82.87;99264.84;271378;1263;23079;-86
2023/05/21 23:43:03;;;;;;;9.50;6.20;;;;;;;11.67;83.28;99259.13;274100;1256;23544;-85
2023/05/21 23:49:05;;;;;;;10.80;6.20;;;;;;;11.62;83.93;99254.27;273897;1253;22256;-85
2023/05/21 23:55:07;;;;;;;10.30;5.60;;;;;;;11.61;84.35;99252.06;274089;1254;22405;-84
